sensor_id;sensor_type;location;lat;lon;timestamp;P1;durP1;ratioP1;P2;durP2;ratioP2
49101;SDS011;34913;47.520;19.186;2023-10-08T00:01:14;6.28;;;2.30;;
49101;SDS011;34913;47.520;19.186;2023-10-08T00:03:44;5.30;;;2.83;;
49101;SDS011;34913;47.520;19.186;2023-10-08T00:06:14;5.40;;;2.50;;
49101;SDS011;34913;47.520;19.186;2023-10-08T00:08:40;5.68;;;2.30;;
49101;SDS011;34913;47.520;19.186;2023-10-08T00:11:06;6.15;;;2.33;;
49101;SDS011;34913;47.520;19.186;2023-10-08T00:13:32;5.50;;;2.40;;
49101;SDS011;34913;47.520;19.186;2023-10-08T00:16:08;5.85;;;2.45;;
49101;SDS011;34913;47.520;19.186;2023-10-08T00:18:41;7.63;;;2.70;;
49101;SDS011;34913;47.520;19.186;2023-10-08T00:21:17;4.97;;;2.28;;
49101;SDS011;34913;47.520;19.186;2023-10-08T00:23:52;7.57;;;2.33;;
49101;SDS011;34913;47.520;19.186;2023-10-08T00:26:20;7.40;;;2.97;;
49101;SDS011;34913;47.520;19.186;2023-10-08T00:31:21;6.30;;;2.50;;
49101;SDS011;34913;47.520;19.186;2023-10-08T00:33:52;6.22;;;2.30;;
49101;SDS011;34913;47.520;19.186;2023-10-08T00:36:17;5.68;;;2.38;;
49101;SDS011;34913;47.520;19.186;2023-10-08T00:38:43;7.50;;;2.60;;
49101;SDS011;34913;47.520;19.186;2023-10-08T00:41:13;5.18;;;2.40;;
49101;SDS011;34913;47.520;19.186;2023-10-08T00:43:42;5.70;;;2.78;;
49101;SDS011;34913;47.520;19.186;2023-10-08T00:46:10;6.25;;;2.50;;
49101;SDS011;34913;47.520;19.186;2023-10-08T00:49:02;4.35;;;2.30;;
49101;SDS011;34913;47.520;19.186;2023-10-08T00:51:49;5.82;;;2.60;;
49101;SDS011;34913;47.520;19.186;2023-10-08T00:54:32;5.68;;;2.65;;
49101;SDS011;34913;47.520;19.186;2023-10-08T00:56:58;6.90;;;3.00;;
49101;SDS011;34913;47.520;19.186;2023-10-08T00:59:29;6.40;;;2.70;;
49101;SDS011;34913;47.520;19.186;2023-10-08T01:02:03;6.88;;;2.50;;
49101;SDS011;34913;47.520;19.186;2023-10-08T01:04:39;5.13;;;2.47;;
49101;SDS011;34913;47.520;19.186;2023-10-08T01:07:06;6.60;;;2.38;;
49101;SDS011;34913;47.520;19.186;2023-10-08T01:09:38;5.45;;;2.70;;
49101;SDS011;34913;47.520;19.186;2023-10-08T01:12:11;6.28;;;2.40;;
49101;SDS011;34913;47.520;19.186;2023-10-08T01:14:38;7.80;;;2.40;;
49101;SDS011;34913;47.520;19.186;2023-10-08T01:17:07;6.57;;;2.40;;
49101;SDS011;34913;47.520;19.186;2023-10-08T01:19:34;4.40;;;2.35;;
49101;SDS011;34913;47.520;19.186;2023-10-08T01:22:05;6.10;;;2.40;;
49101;SDS011;34913;47.520;19.186;2023-10-08T01:24:41;7.45;;;2.30;;
49101;SDS011;34913;47.520;19.186;2023-10-08T01:27:08;8.23;;;2.13;;
49101;SDS011;34913;47.520;19.186;2023-10-08T01:29:36;5.40;;;2.33;;
49101;SDS011;34913;47.520;19.186;2023-10-08T01:32:05;5.35;;;2.45;;
49101;SDS011;34913;47.520;19.186;2023-10-08T01:34:36;6.75;;;2.33;;
49101;SDS011;34913;47.520;19.186;2023-10-08T01:37:02;4.45;;;2.50;;
49101;SDS011;34913;47.520;19.186;2023-10-08T01:42:00;5.63;;;2.15;;
49101;SDS011;34913;47.520;19.186;2023-10-08T01:44:25;6.18;;;2.40;;
49101;SDS011;34913;47.520;19.186;2023-10-08T01:46:51;5.82;;;2.22;;
49101;SDS011;34913;47.520;19.186;2023-10-08T01:49:17;5.18;;;2.22;;
49101;SDS011;34913;47.520;19.186;2023-10-08T01:51:47;5.10;;;2.47;;
49101;SDS011;34913;47.520;19.186;2023-10-08T01:54:13;4.70;;;2.40;;
49101;SDS011;34913;47.520;19.186;2023-10-08T01:56:40;6.93;;;2.63;;
49101;SDS011;34913;47.520;19.186;2023-10-08T01:59:10;4.45;;;2.58;;
49101;SDS011;34913;47.520;19.186;2023-10-08T02:01:37;4.57;;;2.30;;
49101;SDS011;34913;47.520;19.186;2023-10-08T02:04:04;6.25;;;2.40;;
49101;SDS011;34913;47.520;19.186;2023-10-08T02:06:32;5.82;;;2.40;;
49101;SDS011;34913;47.520;19.186;2023-10-08T02:08:59;5.53;;;2.30;;
49101;SDS011;34913;47.520;19.186;2023-10-08T02:11:30;5.40;;;2.53;;
49101;SDS011;34913;47.520;19.186;2023-10-08T02:13:57;5.35;;;2.38;;
49101;SDS011;34913;47.520;19.186;2023-10-08T02:16:22;6.13;;;2.60;;
49101;SDS011;34913;47.520;19.186;2023-10-08T02:18:48;7.50;;;2.30;;
49101;SDS011;34913;47.520;19.186;2023-10-08T02:21:15;5.07;;;2.35;;
49101;SDS011;34913;47.520;19.186;2023-10-08T02:23:40;5.07;;;2.40;;
49101;SDS011;34913;47.520;19.186;2023-10-08T02:26:08;5.07;;;2.33;;
49101;SDS011;34913;47.520;19.186;2023-10-08T02:28:35;6.35;;;2.40;;
49101;SDS011;34913;47.520;19.186;2023-10-08T02:31:03;6.65;;;2.60;;
49101;SDS011;34913;47.520;19.186;2023-10-08T02:33:29;7.32;;;2.63;;
49101;SDS011;34913;47.520;19.186;2023-10-08T02:35:55;8.48;;;2.65;;
49101;SDS011;34913;47.520;19.186;2023-10-08T02:38:21;4.22;;;2.17;;
49101;SDS011;34913;47.520;19.186;2023-10-08T02:40:47;6.97;;;2.60;;
49101;SDS011;34913;47.520;19.186;2023-10-08T02:43:13;16.58;;;2.53;;
49101;SDS011;34913;47.520;19.186;2023-10-08T02:45:42;6.55;;;2.30;;
49101;SDS011;34913;47.520;19.186;2023-10-08T02:48:12;5.32;;;2.70;;
49101;SDS011;34913;47.520;19.186;2023-10-08T02:50:41;7.13;;;2.42;;
49101;SDS011;34913;47.520;19.186;2023-10-08T02:53:08;7.95;;;2.65;;
49101;SDS011;34913;47.520;19.186;2023-10-08T02:55:37;3.53;;;2.08;;
49101;SDS011;34913;47.520;19.186;2023-10-08T03:00:39;7.53;;;2.20;;
49101;SDS011;34913;47.520;19.186;2023-10-08T03:03:08;7.68;;;2.50;;
49101;SDS011;34913;47.520;19.186;2023-10-08T03:05:47;8.45;;;2.75;;
49101;SDS011;34913;47.520;19.186;2023-10-08T03:08:21;6.57;;;2.50;;
49101;SDS011;34913;47.520;19.186;2023-10-08T03:10:48;5.97;;;2.25;;
49101;SDS011;34913;47.520;19.186;2023-10-08T03:13:21;6.22;;;2.50;;
49101;SDS011;34913;47.520;19.186;2023-10-08T03:15:47;4.55;;;2.45;;
49101;SDS011;34913;47.520;19.186;2023-10-08T03:18:28;5.22;;;2.30;;
49101;SDS011;34913;47.520;19.186;2023-10-08T03:21:02;6.10;;;2.47;;
49101;SDS011;34913;47.520;19.186;2023-10-08T03:23:45;7.75;;;2.67;;
49101;SDS011;34913;47.520;19.186;2023-10-08T03:26:12;6.05;;;2.33;;
49101;SDS011;34913;47.520;19.186;2023-10-08T03:29:02;5.97;;;2.47;;
49101;SDS011;34913;47.520;19.186;2023-10-08T03:31:40;4.78;;;2.40;;
49101;SDS011;34913;47.520;19.186;2023-10-08T03:34:15;6.10;;;2.60;;
49101;SDS011;34913;47.520;19.186;2023-10-08T03:36:43;4.15;;;2.08;;
49101;SDS011;34913;47.520;19.186;2023-10-08T03:39:16;7.07;;;2.40;;
49101;SDS011;34913;47.520;19.186;2023-10-08T03:41:45;5.60;;;2.25;;
49101;SDS011;34913;47.520;19.186;2023-10-08T03:44:23;7.10;;;2.45;;
49101;SDS011;34913;47.520;19.186;2023-10-08T03:46:49;4.30;;;2.40;;
49101;SDS011;34913;47.520;19.186;2023-10-08T03:49:17;6.70;;;2.67;;
49101;SDS011;34913;47.520;19.186;2023-10-08T03:51:45;8.60;;;2.28;;
49101;SDS011;34913;47.520;19.186;2023-10-08T03:54:11;8.35;;;2.20;;
49101;SDS011;34913;47.520;19.186;2023-10-08T03:56:39;5.28;;;2.15;;
49101;SDS011;34913;47.520;19.186;2023-10-08T03:59:10;7.68;;;2.55;;
49101;SDS011;34913;47.520;19.186;2023-10-08T04:01:46;12.18;;;2.78;;
49101;SDS011;34913;47.520;19.186;2023-10-08T04:04:19;8.60;;;2.50;;
49101;SDS011;34913;47.520;19.186;2023-10-08T04:06:55;6.80;;;2.70;;
49101;SDS011;34913;47.520;19.186;2023-10-08T04:09:41;5.75;;;2.60;;
49101;SDS011;34913;47.520;19.186;2023-10-08T04:12:07;7.60;;;3.00;;
49101;SDS011;34913;47.520;19.186;2023-10-08T04:14:36;4.00;;;2.60;;
49101;SDS011;34913;47.520;19.186;2023-10-08T04:17:01;7.47;;;2.58;;
49101;SDS011;34913;47.520;19.186;2023-10-08T04:19:28;11.30;;;2.50;;
49101;SDS011;34913;47.520;19.186;2023-10-08T04:21:55;4.90;;;2.50;;
49101;SDS011;34913;47.520;19.186;2023-10-08T04:24:25;5.97;;;2.70;;
49101;SDS011;34913;47.520;19.186;2023-10-08T04:27:09;7.95;;;2.55;;
49101;SDS011;34913;47.520;19.186;2023-10-08T04:29:35;6.03;;;2.30;;
49101;SDS011;34913;47.520;19.186;2023-10-08T04:32:02;7.15;;;2.47;;
49101;SDS011;34913;47.520;19.186;2023-10-08T04:34:37;3.95;;;2.20;;
49101;SDS011;34913;47.520;19.186;2023-10-08T04:37:02;5.10;;;2.55;;
49101;SDS011;34913;47.520;19.186;2023-10-08T04:39:38;5.97;;;2.30;;
49101;SDS011;34913;47.520;19.186;2023-10-08T04:42:12;3.00;;;2.10;;
49101;SDS011;34913;47.520;19.186;2023-10-08T04:44:39;6.68;;;2.13;;
49101;SDS011;34913;47.520;19.186;2023-10-08T04:47:06;6.70;;;2.70;;
49101;SDS011;34913;47.520;19.186;2023-10-08T04:49:52;9.27;;;2.60;;
49101;SDS011;34913;47.520;19.186;2023-10-08T04:52:18;7.40;;;2.35;;
49101;SDS011;34913;47.520;19.186;2023-10-08T04:54:45;5.90;;;2.28;;
49101;SDS011;34913;47.520;19.186;2023-10-08T04:57:16;5.70;;;2.45;;
49101;SDS011;34913;47.520;19.186;2023-10-08T04:59:43;8.10;;;2.80;;
49101;SDS011;34913;47.520;19.186;2023-10-08T05:02:09;5.72;;;2.20;;
49101;SDS011;34913;47.520;19.186;2023-10-08T05:04:45;12.52;;;2.42;;
49101;SDS011;34913;47.520;19.186;2023-10-08T05:07:32;5.32;;;2.05;;
49101;SDS011;34913;47.520;19.186;2023-10-08T05:10:09;8.00;;;2.10;;
49101;SDS011;34913;47.520;19.186;2023-10-08T05:12:37;8.30;;;3.05;;
49101;SDS011;34913;47.520;19.186;2023-10-08T05:15:03;16.50;;;2.40;;
49101;SDS011;34913;47.520;19.186;2023-10-08T05:17:42;6.30;;;2.40;;
49101;SDS011;34913;47.520;19.186;2023-10-08T05:20:32;8.40;;;2.08;;
49101;SDS011;34913;47.520;19.186;2023-10-08T05:23:11;4.82;;;2.10;;
49101;SDS011;34913;47.520;19.186;2023-10-08T05:26:06;4.65;;;2.10;;
49101;SDS011;34913;47.520;19.186;2023-10-08T05:28:38;10.23;;;2.35;;
49101;SDS011;34913;47.520;19.186;2023-10-08T05:31:23;4.70;;;2.07;;
49101;SDS011;34913;47.520;19.186;2023-10-08T05:34:07;8.18;;;2.30;;
49101;SDS011;34913;47.520;19.186;2023-10-08T05:36:42;5.82;;;1.98;;
49101;SDS011;34913;47.520;19.186;2023-10-08T05:39:26;5.40;;;2.05;;
49101;SDS011;34913;47.520;19.186;2023-10-08T05:41:57;10.45;;;2.40;;
49101;SDS011;34913;47.520;19.186;2023-10-08T05:44:40;9.98;;;2.65;;
49101;SDS011;34913;47.520;19.186;2023-10-08T05:47:12;6.93;;;2.30;;
49101;SDS011;34913;47.520;19.186;2023-10-08T05:52:49;6.15;;;2.40;;
49101;SDS011;34913;47.520;19.186;2023-10-08T05:55:23;7.13;;;2.55;;
49101;SDS011;34913;47.520;19.186;2023-10-08T05:58:12;6.00;;;2.42;;
49101;SDS011;34913;47.520;19.186;2023-10-08T06:00:42;7.25;;;2.47;;
49101;SDS011;34913;47.520;19.186;2023-10-08T06:03:29;6.65;;;2.40;;
49101;SDS011;34913;47.520;19.186;2023-10-08T06:06:06;5.68;;;2.30;;
49101;SDS011;34913;47.520;19.186;2023-10-08T06:08:35;6.55;;;2.30;;
49101;SDS011;34913;47.520;19.186;2023-10-08T06:11:15;6.70;;;2.78;;
49101;SDS011;34913;47.520;19.186;2023-10-08T06:14:09;4.20;;;2.35;;
49101;SDS011;34913;47.520;19.186;2023-10-08T06:16:56;6.53;;;2.38;;
49101;SDS011;34913;47.520;19.186;2023-10-08T06:22:04;5.85;;;2.08;;
49101;SDS011;34913;47.520;19.186;2023-10-08T06:24:29;5.63;;;2.33;;
49101;SDS011;34913;47.520;19.186;2023-10-08T06:26:58;5.72;;;2.20;;
49101;SDS011;34913;47.520;19.186;2023-10-08T06:29:29;6.45;;;2.40;;
49101;SDS011;34913;47.520;19.186;2023-10-08T06:31:56;6.45;;;2.50;;
49101;SDS011;34913;47.520;19.186;2023-10-08T06:34:27;5.90;;;2.10;;
49101;SDS011;34913;47.520;19.186;2023-10-08T06:36:54;6.68;;;2.22;;
49101;SDS011;34913;47.520;19.186;2023-10-08T06:39:23;4.43;;;2.28;;
49101;SDS011;34913;47.520;19.186;2023-10-08T06:42:12;4.38;;;2.40;;
49101;SDS011;34913;47.520;19.186;2023-10-08T06:44:40;16.58;;;2.80;;
49101;SDS011;34913;47.520;19.186;2023-10-08T06:47:08;7.55;;;2.47;;
49101;SDS011;34913;47.520;19.186;2023-10-08T06:49:35;7.93;;;2.88;;
49101;SDS011;34913;47.520;19.186;2023-10-08T06:52:01;5.10;;;2.42;;
49101;SDS011;34913;47.520;19.186;2023-10-08T06:54:26;7.18;;;2.40;;
49101;SDS011;34913;47.520;19.186;2023-10-08T06:56:55;7.97;;;2.35;;
49101;SDS011;34913;47.520;19.186;2023-10-08T06:59:21;5.07;;;2.38;;
49101;SDS011;34913;47.520;19.186;2023-10-08T07:01:50;5.05;;;2.13;;
49101;SDS011;34913;47.520;19.186;2023-10-08T07:04:16;6.18;;;2.72;;
49101;SDS011;34913;47.520;19.186;2023-10-08T07:06:44;9.15;;;2.67;;
49101;SDS011;34913;47.520;19.186;2023-10-08T07:09:13;4.55;;;2.15;;
49101;SDS011;34913;47.520;19.186;2023-10-08T07:11:51;6.53;;;2.55;;
49101;SDS011;34913;47.520;19.186;2023-10-08T07:14:20;8.90;;;2.47;;
49101;SDS011;34913;47.520;19.186;2023-10-08T07:16:47;6.05;;;2.75;;
49101;SDS011;34913;47.520;19.186;2023-10-08T07:19:17;8.68;;;2.40;;
49101;SDS011;34913;47.520;19.186;2023-10-08T07:21:46;5.15;;;2.35;;
49101;SDS011;34913;47.520;19.186;2023-10-08T07:24:13;7.72;;;2.72;;
49101;SDS011;34913;47.520;19.186;2023-10-08T07:26:47;9.15;;;2.70;;
49101;SDS011;34913;47.520;19.186;2023-10-08T07:29:15;10.27;;;2.63;;
49101;SDS011;34913;47.520;19.186;2023-10-08T07:31:42;4.68;;;2.22;;
49101;SDS011;34913;47.520;19.186;2023-10-08T07:34:18;12.82;;;2.90;;
49101;SDS011;34913;47.520;19.186;2023-10-08T07:36:51;5.95;;;2.30;;
49101;SDS011;34913;47.520;19.186;2023-10-08T07:39:20;7.13;;;2.60;;
49101;SDS011;34913;47.520;19.186;2023-10-08T07:42:02;7.65;;;2.78;;
49101;SDS011;34913;47.520;19.186;2023-10-08T07:44:33;5.47;;;2.28;;
49101;SDS011;34913;47.520;19.186;2023-10-08T07:47:04;7.53;;;2.50;;
49101;SDS011;34913;47.520;19.186;2023-10-08T07:49:33;8.23;;;2.80;;
49101;SDS011;34913;47.520;19.186;2023-10-08T07:52:01;8.00;;;2.50;;
49101;SDS011;34913;47.520;19.186;2023-10-08T07:54:26;8.50;;;2.50;;
49101;SDS011;34913;47.520;19.186;2023-10-08T07:56:59;7.45;;;2.55;;
49101;SDS011;34913;47.520;19.186;2023-10-08T07:59:36;5.68;;;2.80;;
49101;SDS011;34913;47.520;19.186;2023-10-08T08:02:23;11.68;;;2.78;;
49101;SDS011;34913;47.520;19.186;2023-10-08T08:04:52;10.10;;;2.50;;
49101;SDS011;34913;47.520;19.186;2023-10-08T08:07:19;8.20;;;2.50;;
49101;SDS011;34913;47.520;19.186;2023-10-08T08:09:45;8.38;;;2.75;;
49101;SDS011;34913;47.520;19.186;2023-10-08T08:12:25;9.32;;;2.33;;
49101;SDS011;34913;47.520;19.186;2023-10-08T08:14:53;7.13;;;2.60;;
49101;SDS011;34913;47.520;19.186;2023-10-08T08:17:19;6.90;;;2.20;;
49101;SDS011;34913;47.520;19.186;2023-10-08T08:19:47;10.10;;;2.60;;
49101;SDS011;34913;47.520;19.186;2023-10-08T08:22:15;8.05;;;2.90;;
49101;SDS011;34913;47.520;19.186;2023-10-08T08:27:19;8.20;;;2.97;;
49101;SDS011;34913;47.520;19.186;2023-10-08T08:30:03;6.30;;;2.42;;
49101;SDS011;34913;47.520;19.186;2023-10-08T08:32:41;7.65;;;2.50;;
49101;SDS011;34913;47.520;19.186;2023-10-08T08:35:12;7.40;;;2.75;;
49101;SDS011;34913;47.520;19.186;2023-10-08T08:37:42;6.43;;;2.47;;
49101;SDS011;34913;47.520;19.186;2023-10-08T08:40:11;7.65;;;2.55;;
49101;SDS011;34913;47.520;19.186;2023-10-08T08:42:44;9.05;;;2.28;;
49101;SDS011;34913;47.520;19.186;2023-10-08T08:45:12;5.88;;;2.25;;
49101;SDS011;34913;47.520;19.186;2023-10-08T08:47:39;5.82;;;2.40;;
49101;SDS011;34913;47.520;19.186;2023-10-08T08:50:09;8.07;;;2.85;;
49101;SDS011;34913;47.520;19.186;2023-10-08T08:52:36;7.97;;;2.60;;
49101;SDS011;34913;47.520;19.186;2023-10-08T08:55:03;9.75;;;2.80;;
49101;SDS011;34913;47.520;19.186;2023-10-08T08:57:39;10.50;;;2.55;;
49101;SDS011;34913;47.520;19.186;2023-10-08T09:00:05;8.98;;;2.50;;
49101;SDS011;34913;47.520;19.186;2023-10-08T09:02:37;6.40;;;2.60;;
49101;SDS011;34913;47.520;19.186;2023-10-08T09:05:03;5.18;;;2.50;;
49101;SDS011;34913;47.520;19.186;2023-10-08T09:07:59;10.10;;;2.60;;
49101;SDS011;34913;47.520;19.186;2023-10-08T09:10:33;9.00;;;2.40;;
49101;SDS011;34913;47.520;19.186;2023-10-08T09:13:18;9.00;;;2.40;;
49101;SDS011;34913;47.520;19.186;2023-10-08T09:15:46;5.82;;;2.40;;
49101;SDS011;34913;47.520;19.186;2023-10-08T09:18:11;7.43;;;2.38;;
49101;SDS011;34913;47.520;19.186;2023-10-08T09:20:39;8.18;;;2.30;;
49101;SDS011;34913;47.520;19.186;2023-10-08T09:23:15;7.43;;;2.33;;
49101;SDS011;34913;47.520;19.186;2023-10-08T09:25:43;8.85;;;2.40;;
49101;SDS011;34913;47.520;19.186;2023-10-08T09:28:09;4.88;;;2.30;;
49101;SDS011;34913;47.520;19.186;2023-10-08T09:30:38;10.77;;;2.10;;
49101;SDS011;34913;47.520;19.186;2023-10-08T09:33:08;8.02;;;2.40;;
49101;SDS011;34913;47.520;19.186;2023-10-08T09:35:35;11.10;;;2.50;;
49101;SDS011;34913;47.520;19.186;2023-10-08T09:38:05;7.05;;;2.60;;
49101;SDS011;34913;47.520;19.186;2023-10-08T09:40:38;9.25;;;2.17;;
49101;SDS011;34913;47.520;19.186;2023-10-08T09:43:12;6.18;;;2.17;;
49101;SDS011;34913;47.520;19.186;2023-10-08T09:45:38;3.67;;;2.30;;
49101;SDS011;34913;47.520;19.186;2023-10-08T09:48:11;6.25;;;2.10;;
49101;SDS011;34913;47.520;19.186;2023-10-08T09:50:38;7.18;;;2.45;;
49101;SDS011;34913;47.520;19.186;2023-10-08T09:53:09;11.48;;;2.45;;
49101;SDS011;34913;47.520;19.186;2023-10-08T09:55:45;5.10;;;2.25;;
49101;SDS011;34913;47.520;19.186;2023-10-08T09:58:19;6.40;;;2.25;;
49101;SDS011;34913;47.520;19.186;2023-10-08T10:00:48;10.32;;;2.20;;
49101;SDS011;34913;47.520;19.186;2023-10-08T10:03:14;5.68;;;2.17;;
49101;SDS011;34913;47.520;19.186;2023-10-08T10:05:40;5.93;;;2.10;;
49101;SDS011;34913;47.520;19.186;2023-10-08T10:08:08;6.20;;;1.90;;
49101;SDS011;34913;47.520;19.186;2023-10-08T10:10:37;8.43;;;1.85;;
49101;SDS011;34913;47.520;19.186;2023-10-08T10:13:04;2.95;;;1.40;;
49101;SDS011;34913;47.520;19.186;2023-10-08T10:15:33;8.35;;;1.40;;
49101;SDS011;34913;47.520;19.186;2023-10-08T10:20:59;7.03;;;1.20;;
49101;SDS011;34913;47.520;19.186;2023-10-08T10:23:45;2.53;;;1.10;;
49101;SDS011;34913;47.520;19.186;2023-10-08T10:31:40;2.53;;;1.20;;
49101;SDS011;34913;47.520;19.186;2023-10-08T10:34:12;3.08;;;1.23;;
49101;SDS011;34913;47.520;19.186;2023-10-08T10:36:41;3.55;;;1.50;;
49101;SDS011;34913;47.520;19.186;2023-10-08T10:39:12;4.70;;;1.60;;
49101;SDS011;34913;47.520;19.186;2023-10-08T10:41:51;2.97;;;1.60;;
49101;SDS011;34913;47.520;19.186;2023-10-08T10:44:30;2.35;;;1.20;;
49101;SDS011;34913;47.520;19.186;2023-10-08T10:46:56;2.65;;;1.35;;
49101;SDS011;34913;47.520;19.186;2023-10-08T10:49:44;2.97;;;1.50;;
49101;SDS011;34913;47.520;19.186;2023-10-08T10:52:24;3.00;;;0.90;;
49101;SDS011;34913;47.520;19.186;2023-10-08T10:55:02;3.42;;;0.73;;
49101;SDS011;34913;47.520;19.186;2023-10-08T10:57:42;1.85;;;0.90;;
49101;SDS011;34913;47.520;19.186;2023-10-08T11:00:08;0.98;;;0.70;;
49101;SDS011;34913;47.520;19.186;2023-10-08T11:03:04;0.98;;;0.50;;
49101;SDS011;34913;47.520;19.186;2023-10-08T11:05:41;1.33;;;0.40;;
49101;SDS011;34913;47.520;19.186;2023-10-08T11:08:13;1.23;;;0.43;;
49101;SDS011;34913;47.520;19.186;2023-10-08T11:10:41;0.32;;;0.32;;
49101;SDS011;34913;47.520;19.186;2023-10-08T11:13:21;0.60;;;0.30;;
49101;SDS011;34913;47.520;19.186;2023-10-08T11:15:53;0.38;;;0.32;;
49101;SDS011;34913;47.520;19.186;2023-10-08T11:18:23;0.47;;;0.30;;
49101;SDS011;34913;47.520;19.186;2023-10-08T11:20:50;0.60;;;0.50;;
49101;SDS011;34913;47.520;19.186;2023-10-08T11:26:02;0.65;;;0.40;;
49101;SDS011;34913;47.520;19.186;2023-10-08T11:28:30;0.43;;;0.40;;
49101;SDS011;34913;47.520;19.186;2023-10-08T11:31:13;2.55;;;0.30;;
49101;SDS011;34913;47.520;19.186;2023-10-08T11:33:41;0.25;;;0.22;;
49101;SDS011;34913;47.520;19.186;2023-10-08T11:36:08;0.40;;;0.20;;
49101;SDS011;34913;47.520;19.186;2023-10-08T11:38:44;0.50;;;0.35;;
49101;SDS011;34913;47.520;19.186;2023-10-08T11:41:15;2.28;;;0.30;;
49101;SDS011;34913;47.520;19.186;2023-10-08T11:43:53;0.88;;;0.50;;
49101;SDS011;34913;47.520;19.186;2023-10-08T11:46:28;3.00;;;0.50;;
49101;SDS011;34913;47.520;19.186;2023-10-08T11:48:59;0.80;;;0.40;;
49101;SDS011;34913;47.520;19.186;2023-10-08T11:51:33;1.17;;;0.40;;
49101;SDS011;34913;47.520;19.186;2023-10-08T11:54:03;0.30;;;0.30;;
49101;SDS011;34913;47.520;19.186;2023-10-08T11:56:31;3.20;;;0.70;;
49101;SDS011;34913;47.520;19.186;2023-10-08T11:59:01;3.17;;;0.70;;
49101;SDS011;34913;47.520;19.186;2023-10-08T12:01:30;0.30;;;0.30;;
49101;SDS011;34913;47.520;19.186;2023-10-08T12:04:00;1.13;;;0.30;;
49101;SDS011;34913;47.520;19.186;2023-10-08T12:06:26;0.70;;;0.32;;
49101;SDS011;34913;47.520;19.186;2023-10-08T12:08:55;2.30;;;0.30;;
49101;SDS011;34913;47.520;19.186;2023-10-08T12:11:23;1.25;;;0.40;;
49101;SDS011;34913;47.520;19.186;2023-10-08T12:13:56;1.70;;;0.40;;
49101;SDS011;34913;47.520;19.186;2023-10-08T12:16:24;1.38;;;0.40;;
49101;SDS011;34913;47.520;19.186;2023-10-08T12:18:51;1.13;;;0.40;;
49101;SDS011;34913;47.520;19.186;2023-10-08T12:21:26;0.88;;;0.60;;
49101;SDS011;34913;47.520;19.186;2023-10-08T12:23:54;2.83;;;0.50;;
49101;SDS011;34913;47.520;19.186;2023-10-08T12:26:22;4.13;;;0.80;;
49101;SDS011;34913;47.520;19.186;2023-10-08T12:28:47;2.75;;;0.50;;
49101;SDS011;34913;47.520;19.186;2023-10-08T12:31:17;2.28;;;0.30;;
49101;SDS011;34913;47.520;19.186;2023-10-08T12:33:47;0.40;;;0.32;;
49101;SDS011;34913;47.520;19.186;2023-10-08T12:36:16;2.75;;;0.30;;
49101;SDS011;34913;47.520;19.186;2023-10-08T12:38:42;0.40;;;0.30;;
49101;SDS011;34913;47.520;19.186;2023-10-08T12:41:12;2.97;;;0.30;;
49101;SDS011;34913;47.520;19.186;2023-10-08T12:43:41;1.05;;;0.40;;
49101;SDS011;34913;47.520;19.186;2023-10-08T12:46:09;0.50;;;0.40;;
49101;SDS011;34913;47.520;19.186;2023-10-08T12:48:41;0.40;;;0.40;;
49101;SDS011;34913;47.520;19.186;2023-10-08T12:51:09;1.33;;;0.38;;
49101;SDS011;34913;47.520;19.186;2023-10-08T12:53:36;0.38;;;0.30;;
49101;SDS011;34913;47.520;19.186;2023-10-08T12:56:06;1.30;;;0.40;;
49101;SDS011;34913;47.520;19.186;2023-10-08T12:58:40;1.95;;;0.40;;
49101;SDS011;34913;47.520;19.186;2023-10-08T13:01:16;1.70;;;0.30;;
49101;SDS011;34913;47.520;19.186;2023-10-08T13:03:45;3.53;;;0.40;;
49101;SDS011;34913;47.520;19.186;2023-10-08T13:06:16;2.92;;;0.50;;
49101;SDS011;34913;47.520;19.186;2023-10-08T13:09:09;2.67;;;0.28;;
49101;SDS011;34913;47.520;19.186;2023-10-08T13:11:37;1.75;;;0.40;;
49101;SDS011;34913;47.520;19.186;2023-10-08T13:14:04;0.93;;;0.40;;
49101;SDS011;34913;47.520;19.186;2023-10-08T13:16:30;2.70;;;0.40;;
49101;SDS011;34913;47.520;19.186;2023-10-08T13:18:56;2.80;;;0.45;;
49101;SDS011;34913;47.520;19.186;2023-10-08T13:21:24;2.15;;;0.40;;
49101;SDS011;34913;47.520;19.186;2023-10-08T13:23:53;1.98;;;0.50;;
49101;SDS011;34913;47.520;19.186;2023-10-08T13:26:22;0.50;;;0.30;;
49101;SDS011;34913;47.520;19.186;2023-10-08T13:28:49;1.27;;;0.47;;
49101;SDS011;34913;47.520;19.186;2023-10-08T13:31:15;0.40;;;0.40;;
49101;SDS011;34913;47.520;19.186;2023-10-08T13:33:41;1.00;;;0.90;;
49101;SDS011;34913;47.520;19.186;2023-10-08T13:36:09;0.60;;;0.40;;
49101;SDS011;34913;47.520;19.186;2023-10-08T13:38:36;2.95;;;0.60;;
49101;SDS011;34913;47.520;19.186;2023-10-08T13:41:06;1.15;;;0.50;;
49101;SDS011;34913;47.520;19.186;2023-10-08T13:43:43;1.80;;;0.50;;
49101;SDS011;34913;47.520;19.186;2023-10-08T13:46:16;0.70;;;0.52;;
49101;SDS011;34913;47.520;19.186;2023-10-08T13:48:46;2.15;;;0.82;;
49101;SDS011;34913;47.520;19.186;2023-10-08T13:51:15;4.35;;;0.80;;
49101;SDS011;34913;47.520;19.186;2023-10-08T13:53:53;1.02;;;0.60;;
49101;SDS011;34913;47.520;19.186;2023-10-08T13:56:29;2.55;;;0.68;;
49101;SDS011;34913;47.520;19.186;2023-10-08T13:58:56;1.65;;;0.50;;
49101;SDS011;34913;47.520;19.186;2023-10-08T14:01:37;0.60;;;0.50;;
49101;SDS011;34913;47.520;19.186;2023-10-08T14:04:05;1.77;;;0.60;;
49101;SDS011;34913;47.520;19.186;2023-10-08T14:06:33;1.00;;;0.60;;
49101;SDS011;34913;47.520;19.186;2023-10-08T14:08:59;1.63;;;0.50;;
49101;SDS011;34913;47.520;19.186;2023-10-08T14:11:26;0.70;;;0.52;;
49101;SDS011;34913;47.520;19.186;2023-10-08T14:13:55;1.17;;;0.80;;
49101;SDS011;34913;47.520;19.186;2023-10-08T14:16:21;0.50;;;0.50;;
49101;SDS011;34913;47.520;19.186;2023-10-08T14:18:54;1.10;;;0.73;;
49101;SDS011;34913;47.520;19.186;2023-10-08T14:21:21;0.80;;;0.60;;
49101;SDS011;34913;47.520;19.186;2023-10-08T14:23:55;1.75;;;1.23;;
49101;SDS011;34913;47.520;19.186;2023-10-08T14:26:28;0.90;;;0.80;;
49101;SDS011;34913;47.520;19.186;2023-10-08T14:29:01;0.93;;;0.60;;
49101;SDS011;34913;47.520;19.186;2023-10-08T14:31:33;0.98;;;0.73;;
49101;SDS011;34913;47.520;19.186;2023-10-08T14:34:03;2.05;;;0.70;;
49101;SDS011;34913;47.520;19.186;2023-10-08T14:36:42;0.88;;;0.75;;
49101;SDS011;34913;47.520;19.186;2023-10-08T14:39:29;2.10;;;0.70;;
49101;SDS011;34913;47.520;19.186;2023-10-08T14:42:15;0.90;;;0.70;;
49101;SDS011;34913;47.520;19.186;2023-10-08T14:44:59;1.00;;;0.88;;
49101;SDS011;34913;47.520;19.186;2023-10-08T14:47:25;1.00;;;0.80;;
49101;SDS011;34913;47.520;19.186;2023-10-08T14:49:51;1.10;;;0.80;;
49101;SDS011;34913;47.520;19.186;2023-10-08T14:52:16;1.23;;;0.90;;
49101;SDS011;34913;47.520;19.186;2023-10-08T14:54:42;1.10;;;1.00;;
49101;SDS011;34913;47.520;19.186;2023-10-08T14:57:08;1.17;;;0.90;;
49101;SDS011;34913;47.520;19.186;2023-10-08T14:59:37;1.38;;;0.90;;
49101;SDS011;34913;47.520;19.186;2023-10-08T15:02:03;1.25;;;0.95;;
49101;SDS011;34913;47.520;19.186;2023-10-08T15:04:28;1.30;;;1.00;;
49101;SDS011;34913;47.520;19.186;2023-10-08T15:06:56;2.40;;;1.10;;
49101;SDS011;34913;47.520;19.186;2023-10-08T15:09:22;2.95;;;1.02;;
49101;SDS011;34913;47.520;19.186;2023-10-08T15:11:49;4.10;;;1.10;;
49101;SDS011;34913;47.520;19.186;2023-10-08T15:14:16;1.13;;;0.90;;
49101;SDS011;34913;47.520;19.186;2023-10-08T15:16:44;3.70;;;1.05;;
49101;SDS011;34913;47.520;19.186;2023-10-08T15:19:12;1.50;;;0.95;;
49101;SDS011;34913;47.520;19.186;2023-10-08T15:21:41;2.13;;;1.08;;
49101;SDS011;34913;47.520;19.186;2023-10-08T15:24:06;1.52;;;1.33;;